createdAt,value
2022-09-04T00:00:03.589Z,86.74
2022-09-04T00:03:03.290Z,87.21
2022-09-04T00:05:49.548Z,87.92
2022-09-04T00:08:15.894Z,87.49
2022-09-04T00:11:20.166Z,87.07
2022-09-04T00:13:55.209Z,86.39
2022-09-04T00:16:24.521Z,86.27
2022-09-04T00:19:17.866Z,86.70
2022-09-04T00:22:11.001Z,86.59
2022-09-04T00:24:42.151Z,86.28
2022-09-04T00:27:13.871Z,86.43
2022-09-04T00:29:54.476Z,86.04
2022-09-04T00:32:38.496Z,85.97
2022-09-04T00:35:32.446Z,86.10
2022-09-04T00:38:15.484Z,85.63
2022-09-04T00:41:15.844Z,86.00
2022-09-04T00:44:11.954Z,86.13
2022-09-04T00:46:56.153Z,86.03
2022-09-04T00:49:46.879Z,85.07
2022-09-04T00:52:41.269Z,85.54
2022-09-04T00:55:38.903Z,85.29
2022-09-04T00:58:49.592Z,85.23
2022-09-04T01:01:23.719Z,85.08
2022-09-04T01:04:12.332Z,84.92
2022-09-04T01:07:03.600Z,85.50
2022-09-04T01:10:01.066Z,87.14
2022-09-04T01:12:53.355Z,88.20
2022-09-04T01:15:42.885Z,88.10
2022-09-04T01:18:10.171Z,88.21
2022-09-04T01:21:01.200Z,89.19
2022-09-04T01:23:48.939Z,88.71
2022-09-04T01:26:21.434Z,88.47
2022-09-04T01:28:58.819Z,88.67
2022-09-04T01:32:02.873Z,87.96
2022-09-04T01:34:45.150Z,88.02
2022-09-04T01:37:30.224Z,88.61
2022-09-04T01:40:36.211Z,90.53
2022-09-04T01:43:07.716Z,92.14
2022-09-04T01:45:55.477Z,92.82
2022-09-04T01:48:34.909Z,94.84
2022-09-04T01:51:15.214Z,96.10
2022-09-04T01:53:46.152Z,95.22
2022-09-04T01:56:21.720Z,96.43
2022-09-04T01:58:56.815Z,96.91
2022-09-04T02:01:47.652Z,96.99
2022-09-04T02:04:28.235Z,98.82
2022-09-04T02:07:13.386Z,99.51
2022-09-04T02:09:54.016Z,99.30
2022-09-04T02:12:35.337Z,97.57
2022-09-04T02:15:13.086Z,96.83
2022-09-04T02:18:20.679Z,97.17
2022-09-04T02:20:58.736Z,97.21
2022-09-04T02:24:02.476Z,98.73
2022-09-04T02:26:55.055Z,98.07
2022-09-04T02:29:36.472Z,97.73
2022-09-04T02:32:20.375Z,97.68
2022-09-04T02:35:02.724Z,98.35
2022-09-04T02:37:32.891Z,99.74
2022-09-04T02:40:11.893Z,99.93
2022-09-04T02:43:06.053Z,99.95
2022-09-04T02:46:02.129Z,99.48
2022-09-04T02:48:40.258Z,98.03
2022-09-04T02:51:45.556Z,98.04
2022-09-04T02:54:38.642Z,98.01
2022-09-04T02:57:43.850Z,99.29
2022-09-04T03:00:21.636Z,98.69
2022-09-04T03:03:15.794Z,98.14
2022-09-04T03:06:18.377Z,97.90
2022-09-04T03:09:01.869Z,98.65
2022-09-04T03:12:05.469Z,99.21
2022-09-04T03:14:41.058Z,98.53
2022-09-04T03:17:33.855Z,97.64
2022-09-04T03:20:09.860Z,97.93
2022-09-04T03:22:40.781Z,98.25
2022-09-04T03:25:50.741Z,99.55
2022-09-04T03:28:43.425Z,99.04
2022-09-04T03:31:40.528Z,99.97
2022-09-04T03:34:34.066Z,99.64
2022-09-04T03:37:15.708Z,100.00
2022-09-04T03:40:05.689Z,100.00
2022-09-04T03:42:47.232Z,100.00
2022-09-04T03:45:32.476Z,100.00
2022-09-04T03:48:37.046Z,99.25
2022-09-04T03:51:10.856Z,99.59
2022-09-04T03:53:43.529Z,100.00
2022-09-04T03:56:28.492Z,99.82
2022-09-04T03:59:03.275Z,99.75
2022-09-04T04:01:47.736Z,100.00
2022-09-04T04:04:52.780Z,100.00
2022-09-04T04:07:21.920Z,99.59
2022-09-04T04:10:03.334Z,99.83
2022-09-04T04:13:14.878Z,100.00
2022-09-04T04:15:46.296Z,100.00
2022-09-04T04:18:19.460Z,100.00
2022-09-04T04:21:19.732Z,100.00
2022-09-04T04:23:57.555Z,100.00
2022-09-04T04:26:52.898Z,100.00
2022-09-04T04:29:43.130Z,100.00
2022-09-04T04:32:28.426Z,100.00
2022-09-04T04:35:12.586Z,100.00
2022-09-04T04:38:18.152Z,100.00
2022-09-04T04:41:16.035Z,100.00
2022-09-04T04:43:55.395Z,100.00
2022-09-04T04:47:01.812Z,100.00
2022-09-04T04:49:58.554Z,100.00
2022-09-04T04:52:58.282Z,100.00
2022-09-04T04:55:40.031Z,100.00
2022-09-04T04:58:07.752Z,100.00
2022-09-04T05:01:01.817Z,100.00
2022-09-04T05:03:52.086Z,100.00
2022-09-04T05:06:30.712Z,100.00
2022-09-04T05:09:32.407Z,100.00
2022-09-04T05:12:11.066Z,100.00
2022-09-04T05:15:13.710Z,99.68
2022-09-04T05:17:49.154Z,99.86
2022-09-04T05:20:49.684Z,99.10
2022-09-04T05:23:38.845Z,99.52
2022-09-04T05:26:14.102Z,99.50
2022-09-04T05:28:45.393Z,99.70
2022-09-04T05:31:37.831Z,100.00
2022-09-04T05:34:07.655Z,100.00
2022-09-04T05:37:07.480Z,100.00
2022-09-04T05:40:03.013Z,100.00
2022-09-04T05:42:38.291Z,100.00
2022-09-04T05:45:29.328Z,100.00
2022-09-04T05:48:17.706Z,100.00
2022-09-04T05:50:53.176Z,100.00
2022-09-04T05:53:40.828Z,100.00
2022-09-04T05:56:30.413Z,100.00
2022-09-04T05:59:27.890Z,100.00
2022-09-04T06:02:29.093Z,99.77
2022-09-04T06:05:06.512Z,99.45
2022-09-04T06:07:47.150Z,100.00
2022-09-04T06:10:19.882Z,100.00
2022-09-04T06:13:06.306Z,100.00
2022-09-04T06:15:40.268Z,100.00
2022-09-04T06:18:33.617Z,100.00
2022-09-04T06:21:13.432Z,100.00
2022-09-04T06:24:07.804Z,100.00
2022-09-04T06:27:13.350Z,100.00
2022-09-04T06:30:03.333Z,100.00
2022-09-04T06:32:42.022Z,100.00
2022-09-04T06:35:27.396Z,100.00
2022-09-04T06:38:12.676Z,100.00
2022-09-04T06:41:08.616Z,100.00
2022-09-04T06:44:06.001Z,100.00
2022-09-04T06:46:45.402Z,100.00
2022-09-04T06:49:36.009Z,100.00
2022-09-04T06:52:07.477Z,100.00
2022-09-04T06:55:00.228Z,100.00
2022-09-04T06:57:35.873Z,100.00
2022-09-04T07:00:14.684Z,100.00
2022-09-04T07:02:56.447Z,100.00
2022-09-04T07:05:43.249Z,100.00
2022-09-04T07:08:25.770Z,100.00
2022-09-04T07:11:17.013Z,100.00
2022-09-04T07:13:49.430Z,100.00
2022-09-04T07:16:43.417Z,100.00
2022-09-04T07:19:24.829Z,100.00
2022-09-04T07:22:42.558Z,100.00
2022-09-04T07:25:26.210Z,100.00
2022-09-04T07:27:55.887Z,100.00
2022-09-04T07:30:25.867Z,100.00
2022-09-04T07:32:58.530Z,100.00
2022-09-04T07:35:47.984Z,100.00
2022-09-04T07:38:50.578Z,100.00
2022-09-04T07:41:39.641Z,100.00
2022-09-04T07:44:37.085Z,100.00
2022-09-04T07:47:27.486Z,100.00
2022-09-04T07:50:18.630Z,100.00
2022-09-04T07:53:11.369Z,100.00
2022-09-04T07:55:41.534Z,100.00
2022-09-04T07:58:31.438Z,100.00
2022-09-04T08:01:29.726Z,100.00
2022-09-04T08:04:22.523Z,100.00
2022-09-04T08:07:01.102Z,100.00
2022-09-04T08:10:01.296Z,100.00
2022-09-04T08:12:42.865Z,100.00
2022-09-04T08:15:19.942Z,100.00
2022-09-04T08:18:10.412Z,100.00
2022-09-04T08:21:10.096Z,100.00
2022-09-04T08:24:14.294Z,100.00
2022-09-04T08:26:46.637Z,100.00
2022-09-04T08:29:34.808Z,100.00
2022-09-04T08:32:09.556Z,100.00
2022-09-04T08:34:58.613Z,99.55
2022-09-04T08:37:28.970Z,98.35
2022-09-04T08:40:29.462Z,97.77
2022-09-04T08:43:03.992Z,98.53
2022-09-04T08:46:14.565Z,97.38
2022-09-04T08:49:11.913Z,96.67
2022-09-04T08:51:58.941Z,95.97
2022-09-04T08:54:57.654Z,94.60
2022-09-04T08:57:53.919Z,94.63
2022-09-04T09:00:22.369Z,94.39
2022-09-04T09:03:24.072Z,93.47
2022-09-04T09:06:06.728Z,91.96
2022-09-04T09:09:12.214Z,90.74
2022-09-04T09:12:09.103Z,89.72
2022-09-04T09:15:03.194Z,89.29
2022-09-04T09:17:38.984Z,88.60
2022-09-04T09:20:24.300Z,88.31
2022-09-04T09:23:19.831Z,86.72
2022-09-04T09:25:56.090Z,86.49
2022-09-04T09:28:59.085Z,85.75
2022-09-04T09:31:44.220Z,84.95
2022-09-04T09:34:29.334Z,85.16
2022-09-04T09:37:37.781Z,84.26
2022-09-04T09:40:36.836Z,83.09
2022-09-04T09:43:12.289Z,83.01
2022-09-04T09:45:43.791Z,81.88
2022-09-04T09:48:36.014Z,81.16
2022-09-04T09:51:44.420Z,80.11
2022-09-04T09:54:29.109Z,79.50
2022-09-04T09:57:07.365Z,78.61
2022-09-04T10:00:06.832Z,78.37
2022-09-04T10:03:26.527Z,77.55
2022-09-04T10:06:16.553Z,75.70
2022-09-04T10:08:58.685Z,76.47
2022-09-04T10:11:40.438Z,75.48
2022-09-04T10:14:50.562Z,74.22
2022-09-04T10:17:45.117Z,74.38
2022-09-04T10:20:42.006Z,72.95
2022-09-04T10:23:48.113Z,72.53
2022-09-04T10:26:17.892Z,72.12
2022-09-04T10:29:18.557Z,72.31
2022-09-04T10:31:52.548Z,70.15
2022-09-04T10:35:09.757Z,70.18
2022-09-04T10:38:09.823Z,70.37
2022-09-04T10:40:52.855Z,70.02
2022-09-04T10:43:37.676Z,67.46
2022-09-04T10:46:28.398Z,65.06
2022-09-04T10:49:34.181Z,65.67
2022-09-04T10:52:06.844Z,66.59
2022-09-04T10:54:44.147Z,65.76
2022-09-04T10:57:33.012Z,65.29
2022-09-04T11:00:20.380Z,63.99
2022-09-04T11:03:24.604Z,64.40
2022-09-04T11:06:08.666Z,62.58
2022-09-04T11:09:04.416Z,62.48
2022-09-04T11:11:59.857Z,63.11
2022-09-04T11:14:36.974Z,62.99
2022-09-04T11:17:25.392Z,66.57
2022-09-04T11:20:18.363Z,62.70
2022-09-04T11:23:05.023Z,62.53
2022-09-04T11:26:08.760Z,63.97
2022-09-04T11:28:47.335Z,64.87
2022-09-04T11:31:49.372Z,61.72
2022-09-04T11:34:40.647Z,63.26
2022-09-04T11:37:48.561Z,63.44
2022-09-04T11:40:46.815Z,63.88
2022-09-04T11:43:37.387Z,64.81
2022-09-04T11:46:34.720Z,65.73
2022-09-04T11:49:31.061Z,66.54
2022-09-04T11:52:08.988Z,66.66
2022-09-04T11:54:56.599Z,66.68
2022-09-04T11:57:35.737Z,66.69
2022-09-04T12:00:12.391Z,67.38
2022-09-04T12:02:57.100Z,67.15
2022-09-04T12:05:45.662Z,67.49
2022-09-04T12:08:41.398Z,68.30
2022-09-04T12:11:34.689Z,68.04
2022-09-04T12:14:04.038Z,67.63
2022-09-04T12:17:05.401Z,67.58
2022-09-04T12:19:57.394Z,68.46
2022-09-04T12:22:42.097Z,68.60
2022-09-04T12:25:14.564Z,68.72
2022-09-04T12:28:06.019Z,69.53
2022-09-04T12:30:50.629Z,69.17
2022-09-04T12:33:42.744Z,68.54
2022-09-04T12:36:18.166Z,69.20
2022-09-04T12:39:22.270Z,68.25
2022-09-04T12:41:57.517Z,68.45
2022-09-04T12:44:33.352Z,68.34
2022-09-04T12:47:35.182Z,68.65
2022-09-04T12:50:29.626Z,69.52
2022-09-04T12:53:26.027Z,70.67
2022-09-04T12:56:06.250Z,70.62
2022-09-04T12:59:23.907Z,70.97
2022-09-04T13:02:24.146Z,68.45
2022-09-04T13:05:28.717Z,69.76
2022-09-04T13:08:01.364Z,69.70
2022-09-04T13:10:41.200Z,69.37
2022-09-04T13:13:13.547Z,68.96
2022-09-04T13:15:48.938Z,68.13
2022-09-04T13:18:27.507Z,68.44
2022-09-04T13:21:05.358Z,69.70
2022-09-04T13:23:47.724Z,68.64
2022-09-04T13:26:29.683Z,70.22
2022-09-04T13:29:19.522Z,71.10
2022-09-04T13:32:13.904Z,69.98
2022-09-04T13:34:52.761Z,71.48
2022-09-04T13:37:29.151Z,68.53
2022-09-04T13:40:24.226Z,66.98
2022-09-04T13:43:15.512Z,65.97
2022-09-04T13:45:53.822Z,65.31
2022-09-04T13:48:37.431Z,65.99
2022-09-04T13:51:29.624Z,63.13
2022-09-04T13:54:05.091Z,64.15
2022-09-04T13:56:39.640Z,64.86
2022-09-04T13:59:10.574Z,63.29
2022-09-04T14:01:45.988Z,62.88
2022-09-04T14:04:17.456Z,63.68
2022-09-04T14:06:44.757Z,64.35
2022-09-04T14:09:11.459Z,63.77
2022-09-04T14:11:45.122Z,64.68
2022-09-04T14:14:19.860Z,64.21
2022-09-04T14:16:49.371Z,64.50
2022-09-04T14:19:49.660Z,64.77
2022-09-04T14:22:23.890Z,66.17
2022-09-04T14:25:06.394Z,65.92
2022-09-04T14:28:11.193Z,66.39
2022-09-04T14:33:35.767Z,65.34
2022-09-04T14:36:33.950Z,66.59
2022-09-04T14:39:20.538Z,65.24
2022-09-04T14:42:19.711Z,64.52
2022-09-04T14:45:09.437Z,65.44
2022-09-04T14:48:06.317Z,66.53
2022-09-04T14:50:44.424Z,66.87
2022-09-04T14:53:18.673Z,67.18
2022-09-04T14:56:07.665Z,66.82
2022-09-04T14:58:38.862Z,66.32
2022-09-04T15:01:17.042Z,65.61
2022-09-04T15:04:01.715Z,65.97
2022-09-04T15:07:10.413Z,65.19
2022-09-04T15:09:40.953Z,65.64
2022-09-04T15:12:32.360Z,64.62
2022-09-04T15:15:32.734Z,63.26
2022-09-04T15:18:23.368Z,63.92
2022-09-04T15:21:01.957Z,63.58
2022-09-04T15:23:45.690Z,63.34
2022-09-04T15:26:24.789Z,62.92
2022-09-04T15:29:02.371Z,62.13
2022-09-04T15:31:35.367Z,62.00
2022-09-04T15:34:08.664Z,61.66
2022-09-04T15:36:37.732Z,61.92
2022-09-04T15:39:18.395Z,61.59
2022-09-04T15:41:49.823Z,61.11
2022-09-04T15:44:34.969Z,60.94
2022-09-04T15:47:19.823Z,61.18
2022-09-04T15:49:54.613Z,60.78
2022-09-04T15:52:37.609Z,60.47
2022-09-04T15:55:07.753Z,60.40
2022-09-04T15:57:55.967Z,60.62
2022-09-04T16:00:24.878Z,60.43
2022-09-04T16:03:08.908Z,60.62
2022-09-04T16:05:49.130Z,60.67
2022-09-04T16:08:33.230Z,60.64
2022-09-04T16:11:16.559Z,60.41
2022-09-04T16:13:58.115Z,60.31
2022-09-04T16:16:33.339Z,60.16
2022-09-04T16:19:14.086Z,60.38
2022-09-04T16:21:46.580Z,60.59
2022-09-04T16:24:51.777Z,60.65
2022-09-04T16:27:22.154Z,60.67
2022-09-04T16:29:55.274Z,60.42
2022-09-04T16:32:24.316Z,60.12
2022-09-04T16:34:55.294Z,60.24
2022-09-04T16:37:42.308Z,60.41
2022-09-04T16:40:29.410Z,60.69
2022-09-04T16:43:11.978Z,60.11
2022-09-04T16:46:15.425Z,60.02
2022-09-04T16:48:54.064Z,60.17
2022-09-04T16:51:40.207Z,60.57
2022-09-04T16:54:17.270Z,60.28
2022-09-04T16:56:50.699Z,60.23
2022-09-04T16:59:24.865Z,60.22
2022-09-04T17:01:59.772Z,60.25
2022-09-04T17:04:47.573Z,60.27
2022-09-04T17:07:21.414Z,60.43
2022-09-04T17:10:05.881Z,60.42
2022-09-04T17:12:56.045Z,60.60
2022-09-04T17:15:53.249Z,60.52
2022-09-04T17:18:22.794Z,60.56
2022-09-04T17:25:05.710Z,60.55
2022-09-04T17:28:55.486Z,60.71
2022-09-04T17:29:14.605Z,61.02
2022-09-04T17:29:46.278Z,61.49
2022-09-04T17:38:05.105Z,61.73
2022-09-04T17:40:32.917Z,63.06
2022-09-04T17:40:46.824Z,64.95
2022-09-04T17:41:54.000Z,64.92
2022-09-04T17:44:38.528Z,65.44
2022-09-04T17:47:19.393Z,65.70
2022-09-04T17:49:49.425Z,65.78
2022-09-04T17:52:57.049Z,66.23
2022-09-04T17:55:24.438Z,66.92
2022-09-04T17:58:22.014Z,67.00
2022-09-04T18:01:14.473Z,67.09
2022-09-04T18:04:24.863Z,66.68
2022-09-04T18:06:58.387Z,66.70
2022-09-04T18:09:39.822Z,66.45
2022-09-04T18:12:24.966Z,66.62
2022-09-04T18:15:12.933Z,66.78
2022-09-04T18:17:56.535Z,67.22
2022-09-04T18:20:38.249Z,67.35
2022-09-04T18:23:31.304Z,67.58
2022-09-04T18:26:07.209Z,67.46
2022-09-04T18:28:42.406Z,67.14
2022-09-04T18:37:10.920Z,67.40
2022-09-04T18:37:20.594Z,67.63
2022-09-04T18:37:44.165Z,68.10
2022-09-04T18:43:29.797Z,68.52
2022-09-04T18:50:25.800Z,68.76
2022-09-04T18:50:35.751Z,69.09
2022-09-04T18:50:42.919Z,68.77
2022-09-04T18:52:22.186Z,68.85
2022-09-04T18:54:54.096Z,68.98
2022-09-04T18:57:32.236Z,68.98
2022-09-04T19:00:09.463Z,68.58
2022-09-04T19:02:53.832Z,68.45
2022-09-04T19:05:21.957Z,68.72
2022-09-04T19:07:55.954Z,68.38
2022-09-04T19:10:29.998Z,68.19
2022-09-04T19:13:14.068Z,67.59
2022-09-04T19:16:16.029Z,67.20
2022-09-04T19:19:03.932Z,67.21
2022-09-04T19:21:57.643Z,68.00
2022-09-04T19:24:35.732Z,68.66
2022-09-04T19:27:26.838Z,68.73
2022-09-04T19:30:19.806Z,69.03
2022-09-04T19:32:59.652Z,69.23
2022-09-04T19:35:37.096Z,69.45
2022-09-04T19:41:32.791Z,69.21
2022-09-04T19:46:02.227Z,69.33
2022-09-04T19:46:03.142Z,69.44
2022-09-04T19:47:27.449Z,69.14
2022-09-04T19:53:19.745Z,69.36
2022-09-04T19:53:35.615Z,69.79
2022-09-04T19:55:55.690Z,69.44
2022-09-04T19:58:37.904Z,69.33
2022-09-04T20:01:14.217Z,69.56
2022-09-04T20:03:52.993Z,69.83
2022-09-04T20:06:26.377Z,69.61
2022-09-04T20:09:06.266Z,69.71
2022-09-04T20:11:38.685Z,69.48
2022-09-04T20:14:14.414Z,70.00
2022-09-04T20:16:53.999Z,69.76
2022-09-04T20:19:38.699Z,69.60
2022-09-04T20:22:14.658Z,69.79
2022-09-04T20:25:01.553Z,69.97
2022-09-04T20:27:41.639Z,70.23
2022-09-04T20:30:12.549Z,70.48
2022-09-04T20:32:56.567Z,70.58
2022-09-04T20:35:39.290Z,70.56
2022-09-04T20:38:23.908Z,71.01
2022-09-04T20:41:29.316Z,70.66
2022-09-04T20:44:28.193Z,70.81
2022-09-04T20:52:44.255Z,70.76
2022-09-04T20:52:55.458Z,70.78
2022-09-04T20:53:20.183Z,70.63
2022-09-04T20:56:17.137Z,70.70
2022-09-04T21:03:06.622Z,71.50
2022-09-04T21:03:22.399Z,71.61
2022-09-04T21:05:21.548Z,71.63
2022-09-04T21:08:00.374Z,71.86
2022-09-04T21:10:37.544Z,72.21
2022-09-04T21:13:29.904Z,72.26
2022-09-04T21:16:05.433Z,72.49
2022-09-04T21:19:28.176Z,71.84
2022-09-04T21:22:32.903Z,72.53
2022-09-04T21:25:08.218Z,72.64
2022-09-04T21:28:12.273Z,72.42
2022-09-04T21:31:23.543Z,72.44
2022-09-04T21:34:43.315Z,72.30
2022-09-04T21:37:32.860Z,72.38
2022-09-04T21:40:42.245Z,72.26
2022-09-04T21:43:19.440Z,72.94
2022-09-04T21:46:07.813Z,73.61
2022-09-04T21:49:08.091Z,73.88
2022-09-04T21:51:43.934Z,74.18
2022-09-04T21:54:38.423Z,74.03
2022-09-04T22:02:31.849Z,74.80
2022-09-04T22:02:37.796Z,75.63
2022-09-04T22:04:19.614Z,75.94
2022-09-04T22:08:33.183Z,76.54
2022-09-04T22:13:27.692Z,77.14
2022-09-04T22:13:40.328Z,77.72
2022-09-04T22:16:17.959Z,77.61
2022-09-04T22:19:16.407Z,78.84
2022-09-04T22:22:28.564Z,78.97
2022-09-04T22:25:12.589Z,78.93
2022-09-04T22:28:14.004Z,79.08
2022-09-04T22:30:40.288Z,79.50
2022-09-04T22:33:18.736Z,79.21
2022-09-04T22:35:53.933Z,79.75
2022-09-04T22:38:32.452Z,79.55
2022-09-04T22:41:23.577Z,79.62
2022-09-04T22:44:09.338Z,79.44
2022-09-04T22:47:20.152Z,80.44
2022-09-04T22:50:10.466Z,80.38
2022-09-04T22:52:41.753Z,80.22
2022-09-04T22:56:00.703Z,80.08
2022-09-04T22:58:44.116Z,79.76
2022-09-04T23:01:45.570Z,79.90
2022-09-04T23:04:35.763Z,79.40
2022-09-04T23:09:54.069Z,80.51
2022-09-04T23:13:54.634Z,80.89
2022-09-04T23:13:57.504Z,80.50
2022-09-04T23:16:27.846Z,81.20
2022-09-04T23:23:22.606Z,81.93
2022-09-04T23:26:34.384Z,81.82
2022-09-04T23:26:45.515Z,81.40
2022-09-04T23:28:27.324Z,81.20
2022-09-04T23:31:08.640Z,81.11
2022-09-04T23:34:11.177Z,81.54
2022-09-04T23:36:44.518Z,81.58
2022-09-04T23:39:36.094Z,81.58
2022-09-04T23:42:11.544Z,81.49
2022-09-04T23:45:04.961Z,81.43
2022-09-04T23:47:47.170Z,82.04
2022-09-04T23:50:37.370Z,82.28
2022-09-04T23:53:15.866Z,82.35
2022-09-04T23:55:56.097Z,83.29
2022-09-04T23:58:51.845Z,82.14
